Time;durP1;ratioP1;P1;durP2;ratioP2;P2;SDS_P1;SDS_P2;PMS_P1;PMS_P2;Temp;Humidity;BMP_temperature;BMP_pressure;BME280_temperature;BME280_humidity;BME280_pressure;Samples;Min_cycle;Max_cycle;Signal;HPM_P1;HPM_P2
2022/03/17 00:01:38;;;;;;;;;;;9.60;99.90;;;;;;5136082;27;19931;-70
2022/03/17 00:04:04;;;;;;;;;;;9.60;99.90;;;;;;5136473;27;20378;-70
2022/03/17 00:06:29;;;;;;;;;;;9.60;99.90;;;;;;5136236;27;19927;-70
2022/03/17 00:08:55;;;;;;;;;;;9.50;99.90;;;;;;5136313;27;19923;-69
2022/03/17 00:11:22;;;;;;;;;;;9.50;99.90;;;;;;5136090;27;20371;-73
2022/03/17 00:13:47;;;;;;;;;;;9.50;99.90;;;;;;5136016;27;19923;-69
2022/03/17 00:16:13;;;;;;;;;;;9.70;99.90;;;;;;5152164;27;19976;-69
2022/03/17 00:18:38;;;;;;;;;;;9.50;99.90;;;;;;5135708;27;19927;-72
2022/03/17 00:21:04;;;;;;;;;;;9.50;99.90;;;;;;5136031;27;19923;-69
2022/03/17 00:23:30;;;;;;;;;;;9.90;99.90;;;;;;5135808;27;20394;-72
2022/03/17 00:25:56;;;;;;;;;;;9.50;99.90;;;;;;5135459;27;19961;-70
2022/03/17 00:28:21;;;;;;;;;;;9.40;99.90;;;;;;5135544;27;19930;-71
2022/03/17 00:30:47;;;;;;;;;;;10.10;99.90;;;;;;5135414;27;19930;-72
2022/03/17 00:33:12;;;;;;;;;;;9.40;99.90;;;;;;5117072;27;20347;-69
2022/03/17 00:35:44;;;;;;;;;;;9.40;99.90;;;;;;5135650;27;19934;-67
2022/03/17 00:38:14;;;;;;;;;;;9.20;99.90;;;;;;5134634;27;19927;-69
2022/03/17 00:40:40;;;;;;;;;;;9.40;99.90;;;;;;5135413;27;19936;-73
2022/03/17 00:43:06;;;;;;;;;;;9.60;99.90;;;;;;5135383;27;19923;-69
2022/03/17 00:45:32;;;;;;;;;;;9.30;99.90;;;;;;5150845;27;19930;-69
2022/03/17 00:47:58;;;;;;;;;;;9.30;99.90;;;;;;5135230;27;19927;-70
2022/03/17 00:50:25;;;;;;;;;;;9.30;99.90;;;;;;5135256;27;19923;-69
2022/03/17 00:52:52;;;;;;;;;;;9.30;99.90;;;;;;5117255;27;19923;-70
2022/03/17 00:55:19;;;;;;;;;;;9.50;99.90;;;;;;5135208;27;19927;-70
2022/03/17 00:57:45;;;;;;;;;;;9.30;99.90;;;;;;5134951;27;19983;-73
2022/03/17 01:00:14;;;;;;;;;;;9.20;99.90;;;;;;5135068;27;19923;-71
2022/03/17 01:02:43;;;;;;;;;;;9.30;99.90;;;;;;5134926;27;19937;-69
2022/03/17 01:05:10;;;;;;;;;;;9.30;99.90;;;;;;5135114;27;20384;-69
2022/03/17 01:07:37;;;;;;;;;;;9.20;99.90;;;;;;5135160;27;19968;-69
2022/03/17 01:10:07;;;;;;;;;;;9.20;99.90;;;;;;5134895;27;19923;-69
2022/03/17 01:12:33;;;;;;;;;;;9.20;99.90;;;;;;5134839;27;19934;-69
2022/03/17 01:14:58;;;;;;;;;;;9.40;99.90;;;;;;5134834;27;19923;-69
2022/03/17 01:17:24;;;;;;;;;;;9.20;99.90;;;;;;5134707;27;19923;-69
2022/03/17 01:19:50;;;;;;;;;;;9.20;99.90;;;;;;5134989;27;20349;-69
2022/03/17 01:22:16;;;;;;;;;;;9.10;99.90;;;;;;5116676;27;20331;-69
2022/03/17 01:24:42;;;;;;;;;;;9.20;99.90;;;;;;5134771;27;19924;-70
2022/03/17 01:27:08;;;;;;;;;;;9.10;99.90;;;;;;5134749;27;19931;-69
2022/03/17 01:29:34;;;;;;;;;;;9.70;99.90;;;;;;5150668;27;19923;-69
2022/03/17 01:31:59;;;;;;;;;;;9.10;99.90;;;;;;5134613;28;20010;-71
2022/03/17 01:34:25;;;;;;;;;;;9.70;99.90;;;;;;5134877;28;19931;-72
2022/03/17 01:36:51;;;;;;;;;;;9.30;99.90;;;;;;5134723;28;20370;-69
2022/03/17 01:39:16;;;;;;;;;;;9.10;99.90;;;;;;5134707;28;19924;-69
2022/03/17 01:41:42;;;;;;;;;;;9.10;99.90;;;;;;5134613;28;20309;-70
2022/03/17 01:44:07;;;;;;;;;;;9.10;99.90;;;;;;5134606;28;19946;-69
2022/03/17 01:49:20;;;;;;;;;;;7.70;99.90;;;;;;5091065;28;19928;-72
2022/03/17 01:51:48;;;;;;;;;;;9.10;99.90;;;;;;5074543;28;19924;-69
2022/03/17 01:54:14;;;;;;;;;;;9.20;99.90;;;;;;5091349;28;19965;-69
2022/03/17 01:56:41;;;;;;;;;;;9.40;99.90;;;;;;5091332;28;19932;-69
2022/03/17 01:59:06;;;;;;;;;;;9.10;99.90;;;;;;5091339;28;19924;-69
2022/03/17 02:01:32;;;;;;;;;;;9.10;99.90;;;;;;5091349;28;20027;-70
2022/03/17 02:03:58;;;;;;;;;;;9.30;99.90;;;;;;5091370;28;19924;-72
2022/03/17 02:06:23;;;;;;;;;;;9.20;99.90;;;;;;5057827;28;19931;-69
2022/03/17 02:08:49;;;;;;;;;;;9.10;99.90;;;;;;5075575;28;19928;-73
2022/03/17 02:13:59;;;;;;;;;;;9.10;99.90;;;;;;5095081;28;19935;-70
2022/03/17 02:16:27;;;;;;;;;;;9.10;99.90;;;;;;5095148;28;20363;-69
2022/03/17 02:18:52;;;;;;;;;;;9.10;99.90;;;;;;5095105;28;19971;-74
2022/03/17 02:21:18;;;;;;;;;;;9.10;99.90;;;;;;5094953;28;20456;-70
2022/03/17 02:26:48;;;;;;;;;;;9.10;99.90;;;;;;5061077;28;19924;-70
2022/03/17 02:29:14;;;;;;;;;;;9.10;99.90;;;;;;5074469;28;20009;-70
2022/03/17 02:31:39;;;;;;;;;;;9.40;99.90;;;;;;5074453;28;19975;-72
2022/03/17 02:34:05;;;;;;;;;;;9.10;99.90;;;;;;5074550;28;19924;-72
2022/03/17 02:36:30;;;;;;;;;;;9.10;99.90;;;;;;5074445;28;19924;-70
2022/03/17 02:38:57;;;;;;;;;;;9.10;99.90;;;;;;5074344;28;19928;-70
2022/03/17 02:41:23;;;;;;;;;;;10.00;99.90;;;;;;5074292;28;20346;-70
2022/03/17 02:43:51;;;;;;;;;;;9.00;99.90;;;;;;5074307;28;19925;-70
2022/03/17 02:46:17;;;;;;;;;;;9.10;99.90;;;;;;5074412;28;19924;-72
2022/03/17 02:48:43;;;;;;;;;;;9.10;99.90;;;;;;5074197;28;19940;-73
2022/03/17 02:51:09;;;;;;;;;;;9.30;99.90;;;;;;5074071;28;20032;-71
2022/03/17 02:53:34;;;;;;;;;;;9.10;99.90;;;;;;5074115;28;19925;-69
2022/03/17 02:56:00;;;;;;;;;;;9.10;99.90;;;;;;5073997;28;20024;-69
2022/03/17 02:58:25;;;;;;;;;;;9.10;99.90;;;;;;5129332;27;19938;-69
2022/03/17 03:00:51;;;;;;;;;;;9.20;99.90;;;;;;5137501;27;19923;-69
2022/03/17 03:03:17;;;;;;;;;;;9.60;99.90;;;;;;5119376;27;19927;-69
2022/03/17 03:05:43;;;;;;;;;;;9.20;99.90;;;;;;5137294;27;19931;-69
2022/03/17 03:08:09;;;;;;;;;;;9.20;99.90;;;;;;5137283;27;19980;-69
2022/03/17 03:10:34;;;;;;;;;;;10.00;99.90;;;;;;5153105;27;19923;-69
2022/03/17 03:13:00;;;;;;;;;;;10.00;99.90;;;;;;5137362;27;20297;-71
2022/03/17 03:15:25;;;;;;;;;;;9.50;99.90;;;;;;5119196;27;19923;-70
2022/03/17 03:17:51;;;;;;;;;;;9.20;99.90;;;;;;5119029;27;19931;-69
2022/03/17 03:20:17;;;;;;;;;;;9.30;99.90;;;;;;5134859;27;19952;-70
2022/03/17 03:22:42;;;;;;;;;;;9.30;99.90;;;;;;5118668;27;20275;-73
2022/03/17 03:25:09;;;;;;;;;;;9.30;99.90;;;;;;5136895;27;19928;-69
2022/03/17 03:27:35;;;;;;;;;;;9.30;99.90;;;;;;5137133;27;19927;-69
2022/03/17 03:30:01;;;;;;;;;;;9.30;99.90;;;;;;5118591;27;19934;-70
2022/03/17 03:32:29;;;;;;;;;;;9.30;99.90;;;;;;5136884;27;19923;-69
2022/03/17 03:34:55;;;;;;;;;;;10.10;99.90;;;;;;5136898;27;19923;-69
2022/03/17 03:37:23;;;;;;;;;;;9.40;99.90;;;;;;5153068;27;20324;-69
2022/03/17 03:39:50;;;;;;;;;;;9.30;99.90;;;;;;5136611;27;19941;-70
2022/03/17 03:42:15;;;;;;;;;;;9.30;99.90;;;;;;5136552;27;19931;-69
2022/03/17 03:44:41;;;;;;;;;;;9.30;99.90;;;;;;5136712;27;19931;-70
2022/03/17 03:47:07;;;;;;;;;;;9.30;99.90;;;;;;5136618;27;19975;-69
2022/03/17 03:49:32;;;;;;;;;;;8.30;99.90;;;;;;5118317;27;19938;-69
2022/03/17 03:51:58;;;;;;;;;;;9.30;99.90;;;;;;5136384;27;20398;-72
2022/03/17 03:54:23;;;;;;;;;;;9.30;99.90;;;;;;5136356;27;19927;-69
2022/03/17 03:56:50;;;;;;;;;;;9.30;99.90;;;;;;5136245;27;19928;-72
2022/03/17 03:59:23;;;;;;;;;;;9.40;99.90;;;;;;5136436;27;20014;-69
2022/03/17 04:01:49;;;;;;;;;;;9.30;99.90;;;;;;5118151;27;19923;-70
2022/03/17 04:04:19;;;;;;;;;;;9.30;99.90;;;;;;5151846;27;19927;-70
2022/03/17 04:06:49;;;;;;;;;;;9.40;99.90;;;;;;5136214;27;20305;-69
2022/03/17 04:09:15;;;;;;;;;;;9.30;99.90;;;;;;5135934;27;20342;-70
2022/03/17 04:11:41;;;;;;;;;;;9.20;99.90;;;;;;5135918;27;19927;-71
2022/03/17 04:14:07;;;;;;;;;;;9.30;99.90;;;;;;5136141;27;20010;-71
2022/03/17 04:16:33;;;;;;;;;;;9.20;99.90;;;;;;5136013;27;19928;-69
2022/03/17 04:18:58;;;;;;;;;;;9.20;99.90;;;;;;5135772;27;20305;-69
2022/03/17 04:21:24;;;;;;;;;;;9.40;99.90;;;;;;5135838;27;19989;-69
2022/03/17 04:23:50;;;;;;;;;;;9.20;99.90;;;;;;5152137;27;20394;-71
2022/03/17 04:26:16;;;;;;;;;;;9.40;99.90;;;;;;5135403;27;19923;-70
2022/03/17 04:28:41;;;;;;;;;;;9.20;99.90;;;;;;5117476;27;19923;-69
2022/03/17 04:31:07;;;;;;;;;;;9.20;99.90;;;;;;5135272;27;19930;-69
2022/03/17 04:33:32;;;;;;;;;;;9.20;99.90;;;;;;5135617;27;20017;-69
2022/03/17 04:35:58;;;;;;;;;;;9.20;99.90;;;;;;5135472;27;20004;-73
2022/03/17 04:38:25;;;;;;;;;;;9.20;99.90;;;;;;5135458;27;19930;-72
2022/03/17 04:40:50;;;;;;;;;;;9.20;99.90;;;;;;5135309;27;19923;-73
2022/03/17 04:43:17;;;;;;;;;;;9.20;99.90;;;;;;5135354;27;19945;-71
2022/03/17 04:45:46;;;;;;;;;;;9.40;99.90;;;;;;5117393;27;19923;-69
2022/03/17 04:48:12;;;;;;;;;;;9.20;99.90;;;;;;5135431;27;19924;-69
2022/03/17 04:50:38;;;;;;;;;;;9.20;99.90;;;;;;5135041;27;19923;-69
2022/03/17 04:55:48;;;;;;;;;;;9.20;99.90;;;;;;5151706;27;20349;-69
2022/03/17 04:58:16;;;;;;;;;;;9.30;99.90;;;;;;5135289;27;20023;-71
2022/03/17 05:00:42;;;;;;;;;;;9.70;99.90;;;;;;5135154;27;19930;-70
2022/03/17 05:03:08;;;;;;;;;;;9.30;99.90;;;;;;5135187;27;19923;-69
2022/03/17 05:05:33;;;;;;;;;;;9.30;99.90;;;;;;5135005;27;19975;-70
2022/03/17 05:07:59;;;;;;;;;;;9.30;99.90;;;;;;5116822;27;19928;-70
2022/03/17 05:10:25;;;;;;;;;;;10.00;99.90;;;;;;5134886;27;19923;-69
2022/03/17 05:12:50;;;;;;;;;;;9.20;99.90;;;;;;5151352;27;20458;-70
2022/03/17 05:15:16;;;;;;;;;;;9.90;99.90;;;;;;5135013;27;19968;-71
2022/03/17 05:17:42;;;;;;;;;;;9.40;99.90;;;;;;5135045;27;20374;-72
2022/03/17 05:20:08;;;;;;;;;;;9.40;99.90;;;;;;5135042;27;20361;-72
2022/03/17 05:22:34;;;;;;;;;;;9.50;99.90;;;;;;5134817;27;19924;-70
2022/03/17 05:25:00;;;;;;;;;;;9.50;99.90;;;;;;5134663;27;19975;-69
2022/03/17 05:27:26;;;;;;;;;;;9.60;99.90;;;;;;5134505;27;19984;-73
2022/03/17 05:29:51;;;;;;;;;;;9.70;99.90;;;;;;5134653;27;19923;-72
2022/03/17 05:32:17;;;;;;;;;;;9.70;99.90;;;;;;5134777;27;19923;-69
2022/03/17 05:34:43;;;;;;;;;;;9.70;99.90;;;;;;5134820;28;20336;-69
2022/03/17 05:37:09;;;;;;;;;;;9.70;99.90;;;;;;5150658;27;19965;-70
2022/03/17 05:39:35;;;;;;;;;;;9.60;99.90;;;;;;5134654;28;20379;-72
2022/03/17 05:42:00;;;;;;;;;;;9.60;99.90;;;;;;5134387;28;20341;-69
2022/03/17 05:44:26;;;;;;;;;;;9.50;99.90;;;;;;5136902;27;19973;-73
2022/03/17 05:46:52;;;;;;;;;;;9.60;99.90;;;;;;5120621;27;19923;-70
2022/03/17 05:49:19;;;;;;;;;;;9.40;99.90;;;;;;5138690;27;19924;-69
2022/03/17 05:51:44;;;;;;;;;;;9.50;99.90;;;;;;5138721;27;19924;-69
2022/03/17 05:54:10;;;;;;;;;;;9.40;99.90;;;;;;5138653;27;19924;-70
2022/03/17 05:56:36;;;;;;;;;;;9.30;99.90;;;;;;5154975;27;20051;-70
2022/03/17 05:59:01;;;;;;;;;;;9.20;99.90;;;;;;5138815;27;19924;-70
2022/03/17 06:01:27;;;;;;;;;;;9.50;99.90;;;;;;5138667;27;19923;-69
2022/03/17 06:03:52;;;;;;;;;;;9.20;99.90;;;;;;5138753;27;19946;-70
2022/03/17 06:06:18;;;;;;;;;;;9.10;99.90;;;;;;5138555;27;19927;-72
2022/03/17 06:08:43;;;;;;;;;;;9.00;99.90;;;;;;5154838;27;19971;-69
2022/03/17 06:11:09;;;;;;;;;;;9.00;99.90;;;;;;5138114;27;20324;-71
2022/03/17 06:13:35;;;;;;;;;;;9.00;99.90;;;;;;5102735;27;19976;-69
2022/03/17 06:16:01;;;;;;;;;;;10.20;99.90;;;;;;5120300;27;19930;-68
2022/03/17 06:18:26;;;;;;;;;;;8.40;99.90;;;;;;5138394;27;19924;-73
2022/03/17 06:20:52;;;;;;;;;;;9.70;99.90;;;;;;5138208;27;19923;-73
2022/03/17 06:23:19;;;;;;;;;;;9.50;99.90;;;;;;5138204;27;19923;-69
2022/03/17 06:25:45;;;;;;;;;;;9.40;99.90;;;;;;5137986;27;19931;-70
2022/03/17 06:28:13;;;;;;;;;;;8.70;99.90;;;;;;5137713;27;19923;-71
2022/03/17 06:30:38;;;;;;;;;;;8.50;99.90;;;;;;5137804;27;20310;-71
2022/03/17 06:33:04;;;;;;;;;;;8.30;99.90;;;;;;5138050;27;19923;-69
2022/03/17 06:35:30;;;;;;;;;;;8.20;99.90;;;;;;5138040;27;19934;-71
2022/03/17 06:37:57;;;;;;;;;;;7.20;99.90;;;;;;5154027;27;19923;-68
2022/03/17 06:40:23;;;;;;;;;;;8.70;99.90;;;;;;5119450;27;19969;-71
2022/03/17 06:42:49;;;;;;;;;;;8.30;99.90;;;;;;5137632;27;19930;-70
2022/03/17 06:45:15;;;;;;;;;;;8.00;99.90;;;;;;5137905;27;19923;-74
2022/03/17 06:47:41;;;;;;;;;;;6.70;99.90;;;;;;5137898;27;19924;-70
2022/03/17 06:50:07;;;;;;;;;;;7.90;99.90;;;;;;5119190;27;19923;-70
2022/03/17 06:52:33;;;;;;;;;;;7.90;99.90;;;;;;5119264;27;19996;-70
2022/03/17 06:54:58;;;;;;;;;;;8.20;99.90;;;;;;5137186;27;20374;-70
2022/03/17 06:57:24;;;;;;;;;;;8.00;99.90;;;;;;5137335;27;19970;-71
2022/03/17 06:59:50;;;;;;;;;;;8.00;99.90;;;;;;5137608;27;19923;-70
2022/03/17 07:02:16;;;;;;;;;;;7.80;99.90;;;;;;5137565;27;19923;-72
2022/03/17 07:04:42;;;;;;;;;;;7.90;99.90;;;;;;5137483;27;19931;-69
2022/03/17 07:07:08;;;;;;;;;;;8.40;99.90;;;;;;5137388;27;19923;-69
2022/03/17 07:09:33;;;;;;;;;;;6.10;99.90;;;;;;5153488;27;19930;-70
2022/03/17 07:11:59;;;;;;;;;;;7.70;99.90;;;;;;5136145;27;20345;-71
2022/03/17 07:14:25;;;;;;;;;;;8.30;99.90;;;;;;5137127;27;19924;-70
2022/03/17 07:16:50;;;;;;;;;;;7.70;99.90;;;;;;5137210;27;19923;-72
2022/03/17 07:19:16;;;;;;;;;;;7.70;99.90;;;;;;5137121;27;19923;-70
2022/03/17 07:21:41;;;;;;;;;;;7.70;99.90;;;;;;5119065;27;19923;-73
2022/03/17 07:24:08;;;;;;;;;;;7.80;99.90;;;;;;5136994;27;20347;-70
2022/03/17 07:26:39;;;;;;;;;;;7.70;99.90;;;;;;5136739;27;19923;-71
2022/03/17 07:29:04;;;;;;;;;;;7.70;99.90;;;;;;5118382;27;20470;-70
2022/03/17 07:31:30;;;;;;;;;;;7.70;99.90;;;;;;5118877;27;20006;-69
2022/03/17 07:33:56;;;;;;;;;;;7.60;99.90;;;;;;5136020;27;20271;-71
2022/03/17 07:36:21;;;;;;;;;;;8.40;99.90;;;;;;5136823;27;19923;-70
2022/03/17 07:38:47;;;;;;;;;;;6.90;99.90;;;;;;5118542;27;19976;-69
2022/03/17 07:41:14;;;;;;;;;;;7.60;99.90;;;;;;5136511;27;20390;-72
2022/03/17 07:43:41;;;;;;;;;;;7.60;99.90;;;;;;5136510;27;20538;-69
2022/03/17 07:46:06;;;;;;;;;;;7.50;99.90;;;;;;5136765;27;19924;-71
2022/03/17 07:48:32;;;;;;;;;;;7.50;99.90;;;;;;5152722;27;19924;-69
2022/03/17 07:50:57;;;;;;;;;;;7.60;99.90;;;;;;5136369;27;19924;-71
2022/03/17 07:53:23;;;;;;;;;;;7.50;99.90;;;;;;5136389;27;19929;-70
2022/03/17 07:55:54;;;;;;;;;;;7.40;99.90;;;;;;5136328;27;20014;-69
2022/03/17 07:58:26;;;;;;;;;;;7.40;99.90;;;;;;5136234;27;19934;-73
2022/03/17 08:00:52;;;;;;;;;;;7.50;99.90;;;;;;5136460;27;20012;-72
2022/03/17 08:03:18;;;;;;;;;;;7.40;99.90;;;;;;5101210;27;19923;-71
2022/03/17 08:05:46;;;;;;;;;;;7.50;99.90;;;;;;5136025;27;19924;-71
2022/03/17 08:08:12;;;;;;;;;;;7.50;99.90;;;;;;5135671;27;19924;-70
2022/03/17 08:10:37;;;;;;;;;;;7.50;99.90;;;;;;5135909;27;19965;-69
2022/03/17 08:13:05;;;;;;;;;;;8.20;99.90;;;;;;5152278;27;19923;-70
2022/03/17 08:15:31;;;;;;;;;;;8.20;99.90;;;;;;5136129;27;19930;-69
2022/03/17 08:17:56;;;;;;;;;;;6.30;99.90;;;;;;5136075;27;19928;-70
2022/03/17 08:20:22;;;;;;;;;;;7.50;99.90;;;;;;5135986;27;20328;-70
2022/03/17 08:22:49;;;;;;;;;;;7.50;99.90;;;;;;5151974;27;19923;-70
2022/03/17 08:25:15;;;;;;;;;;;7.50;99.90;;;;;;5117747;27;19924;-70
2022/03/17 08:27:42;;;;;;;;;;;7.50;99.90;;;;;;5135455;27;19931;-71
2022/03/17 08:30:08;;;;;;;;;;;7.50;99.90;;;;;;5135660;27;19923;-69
2022/03/17 08:32:33;;;;;;;;;;;7.40;99.90;;;;;;5117689;27;19923;-72
2022/03/17 08:34:59;;;;;;;;;;;7.50;99.90;;;;;;5135799;27;19934;-69
2022/03/17 08:37:25;;;;;;;;;;;7.60;99.90;;;;;;5135625;27;20331;-70
2022/03/17 08:39:51;;;;;;;;;;;7.70;99.90;;;;;;5135421;27;19979;-70
2022/03/17 08:42:17;;;;;;;;;;;7.30;99.90;;;;;;5135346;27;20404;-69
2022/03/17 08:44:42;;;;;;;;;;;7.50;99.90;;;;;;5135237;27;19935;-72
2022/03/17 08:49:52;;;;;;;;;;;7.30;99.90;;;;;;5135338;27;19969;-70
2022/03/17 08:52:19;;;;;;;;;;;7.30;99.90;;;;;;5135118;27;19923;-69
2022/03/17 08:54:45;;;;;;;;;;;8.00;99.90;;;;;;5117092;27;20014;-70
2022/03/17 08:57:12;;;;;;;;;;;7.50;99.90;;;;;;5135027;27;19973;-70
2022/03/17 08:59:38;;;;;;;;;;;7.30;99.90;;;;;;5135230;27;20457;-69
2022/03/17 09:02:05;;;;;;;;;;;7.40;99.90;;;;;;5135244;27;20298;-69
2022/03/17 09:04:31;;;;;;;;;;;7.30;99.90;;;;;;5116773;27;20414;-69
2022/03/17 09:06:59;;;;;;;;;;;7.30;99.90;;;;;;5135043;27;19968;-71
2022/03/17 09:09:35;;;;;;;;;;;7.30;99.90;;;;;;5134989;27;19930;-68
2022/03/17 09:12:04;;;;;;;;;;;7.30;99.90;;;;;;5134858;27;19927;-69
2022/03/17 09:14:30;;;;;;;;;;;7.30;99.90;;;;;;5135340;27;19941;-69
2022/03/17 09:16:56;;;;;;;;;;;7.60;99.90;;;;;;5134955;27;19923;-69
2022/03/17 09:19:21;;;;;;;;;;;7.30;99.90;;;;;;5134690;27;19924;-69
2022/03/17 09:21:47;;;;;;;;;;;7.30;99.90;;;;;;5134985;27;19977;-70
2022/03/17 09:24:13;;;;;;;;;;;8.00;99.90;;;;;;5116754;27;19923;-70
2022/03/17 09:26:38;;;;;;;;;;;7.30;99.90;;;;;;5116378;27;19931;-69
2022/03/17 09:29:04;;;;;;;;;;;7.30;99.90;;;;;;5134775;27;19928;-71
2022/03/17 09:31:30;;;;;;;;;;;7.40;99.90;;;;;;5134738;27;20382;-71
2022/03/17 09:33:56;;;;;;;;;;;7.40;99.90;;;;;;5134607;28;20327;-69
2022/03/17 09:36:22;;;;;;;;;;;8.50;99.90;;;;;;5134703;28;19924;-71
2022/03/17 09:41:33;;;;;;;;;;;8.50;99.90;;;;;;5134669;28;19991;-70
2022/03/17 09:43:59;;;;;;;;;;;7.30;99.90;;;;;;5134741;28;20291;-69
2022/03/17 09:46:26;;;;;;;;;;;7.30;99.90;;;;;;5134663;28;19930;-69
2022/03/17 09:48:53;;;;;;;;;;;7.30;99.90;;;;;;5134590;28;19923;-69
2022/03/17 09:51:26;;;;;;;;;;;7.30;99.90;;;;;;5115695;28;19923;-69
2022/03/17 09:53:59;;;;;;;;;;;7.40;99.90;;;;;;5116324;28;20010;-74
2022/03/17 09:56:24;;;;;;;;;;;7.40;99.90;;;;;;5134670;28;19923;-69
2022/03/17 09:58:51;;;;;;;;;;;7.50;99.90;;;;;;5134407;28;19969;-72
2022/03/17 10:01:17;;;;;;;;;;;7.60;99.90;;;;;;5116431;28;19929;-69
2022/03/17 10:03:43;;;;;;;;;;;7.60;99.90;;;;;;5134459;28;19967;-70
2022/03/17 10:06:10;;;;;;;;;;;7.90;99.90;;;;;;5150011;27;19967;-70
2022/03/17 10:08:38;;;;;;;;;;;7.50;99.90;;;;;;5134265;28;19946;-69
2022/03/17 10:11:03;;;;;;;;;;;7.60;99.90;;;;;;5134351;28;19930;-69
2022/03/17 10:13:29;;;;;;;;;;;7.60;99.90;;;;;;5150472;27;19923;-70
2022/03/17 10:16:05;;;;;;;;;;;7.60;99.90;;;;;;5150728;27;19923;-70
2022/03/17 10:18:30;;;;;;;;;;;7.70;99.90;;;;;;5134350;28;19923;-70
2022/03/17 10:21:24;;;;;;;;;;;7.60;99.90;;;;;;5134517;28;19930;-72
2022/03/17 10:23:51;;;;;;;;;;;7.60;99.90;;;;;;5116057;28;19978;-70
2022/03/17 10:26:36;;;;;;;;;;;7.60;99.90;;;;;;5098520;28;20046;-70
2022/03/17 10:29:22;;;;;;;;;;;7.60;99.90;;;;;;5116013;27;19924;-70
2022/03/17 10:32:01;;;;;;;;;;;7.50;99.90;;;;;;5137623;27;19927;-72
2022/03/17 10:34:29;;;;;;;;;;;7.60;99.90;;;;;;5154284;27;19931;-70
2022/03/17 10:37:07;;;;;;;;;;;7.60;99.90;;;;;;5138027;27;20025;-70
2022/03/17 10:39:51;;;;;;;;;;;7.60;99.90;;;;;;5119814;27;19931;-69
2022/03/17 10:42:17;;;;;;;;;;;7.70;99.90;;;;;;5119588;27;20379;-69
2022/03/17 10:44:52;;;;;;;;;;;7.70;99.90;;;;;;5137940;27;19993;-69
2022/03/17 10:47:25;;;;;;;;;;;8.30;99.90;;;;;;5137778;27;20427;-70
2022/03/17 10:49:59;;;;;;;;;;;7.90;99.90;;;;;;5137683;27;19924;-70
2022/03/17 10:52:24;;;;;;;;;;;8.10;99.90;;;;;;5137575;27;19974;-68
2022/03/17 10:54:56;;;;;;;;;;;8.20;99.90;;;;;;5153820;27;19934;-69
2022/03/17 10:57:24;;;;;;;;;;;8.40;99.90;;;;;;5137762;27;19974;-72
2022/03/17 10:59:53;;;;;;;;;;;8.70;99.90;;;;;;5137679;27;19931;-69
2022/03/17 11:02:21;;;;;;;;;;;8.70;99.90;;;;;;5137494;27;19991;-69
2022/03/17 11:04:47;;;;;;;;;;;8.70;99.90;;;;;;5118977;27;19988;-73
2022/03/17 11:07:14;;;;;;;;;;;8.80;99.90;;;;;;5137264;27;20021;-69
2022/03/17 11:09:41;;;;;;;;;;;8.00;99.90;;;;;;5137236;27;19945;-70
2022/03/17 11:12:07;;;;;;;;;;;9.20;99.90;;;;;;5137394;27;19957;-70
2022/03/17 11:14:33;;;;;;;;;;;9.10;99.90;;;;;;5137402;27;19927;-71
2022/03/17 11:17:01;;;;;;;;;;;9.20;99.90;;;;;;5137234;27;19923;-70
2022/03/17 11:19:27;;;;;;;;;;;9.20;99.90;;;;;;5137032;27;20125;-72
2022/03/17 11:22:19;;;;;;;;;;;9.30;99.90;;;;;;5136951;27;19930;-73
2022/03/17 11:24:45;;;;;;;;;;;9.30;99.90;;;;;;5134900;27;20340;-71
2022/03/17 11:27:11;;;;;;;;;;;9.30;99.90;;;;;;5137019;27;20359;-69
2022/03/17 11:29:45;;;;;;;;;;;9.40;99.90;;;;;;5136849;27;19949;-71
2022/03/17 11:32:31;;;;;;;;;;;9.70;99.90;;;;;;5136807;27;19982;-73
2022/03/17 11:35:07;;;;;;;;;;;9.60;99.90;;;;;;5118946;27;19978;-69
2022/03/17 11:37:33;;;;;;;;;;;9.80;99.90;;;;;;5135918;27;19924;-70
2022/03/17 11:40:11;;;;;;;;;;;10.00;99.90;;;;;;5152273;27;19923;-71
2022/03/17 11:42:41;;;;;;;;;;;10.20;99.90;;;;;;5135453;27;20328;-70
2022/03/17 11:45:12;;;;;;;;;;;10.30;99.90;;;;;;5136582;27;20397;-70
2022/03/17 11:47:43;;;;;;;;;;;10.30;99.90;;;;;;5136867;27;19923;-72
2022/03/17 11:50:20;;;;;;;;;;;10.40;99.90;;;;;;5118238;27;19929;-70
2022/03/17 11:52:50;;;;;;;;;;;10.40;99.90;;;;;;5136465;27;20018;-73
2022/03/17 11:55:34;;;;;;;;;;;10.30;99.90;;;;;;5136389;27;19930;-73
2022/03/17 11:58:25;;;;;;;;;;;10.40;99.90;;;;;;5136480;27;20384;-70
2022/03/17 12:01:02;;;;;;;;;;;10.60;99.90;;;;;;5118368;27;19928;-72
2022/03/17 12:03:29;;;;;;;;;;;10.40;99.90;;;;;;5152664;27;20374;-70
2022/03/17 12:06:13;;;;;;;;;;;10.70;99.90;;;;;;5117867;27;19923;-69
2022/03/17 12:08:41;;;;;;;;;;;10.60;99.90;;;;;;5118283;27;19923;-70
2022/03/17 12:11:08;;;;;;;;;;;10.70;99.90;;;;;;5136144;27;19931;-70
2022/03/17 12:13:35;;;;;;;;;;;10.70;99.90;;;;;;5117974;27;20401;-70
2022/03/17 12:16:01;;;;;;;;;;;10.60;99.90;;;;;;5117963;27;19927;-70
2022/03/17 12:18:28;;;;;;;;;;;10.50;99.90;;;;;;5135956;27;20332;-69
2022/03/17 12:20:53;;;;;;;;;;;10.40;99.90;;;;;;5136023;27;19923;-70
2022/03/17 12:23:37;;;;;;;;;;;10.50;99.90;;;;;;5136009;27;19972;-72
2022/03/17 12:26:04;;;;;;;;;;;10.50;99.90;;;;;;5117709;27;19923;-70
2022/03/17 12:28:32;;;;;;;;;;;10.40;99.90;;;;;;5135384;27;19923;-69
2022/03/17 12:30:58;;;;;;;;;;;10.40;99.90;;;;;;5135548;27;20018;-70
2022/03/17 12:33:25;;;;;;;;;;;10.50;99.90;;;;;;5135543;27;20362;-73
2022/03/17 12:36:04;;;;;;;;;;;10.70;99.90;;;;;;5152165;27;20014;-70
2022/03/17 12:38:29;;;;;;;;;;;10.70;99.90;;;;;;5135679;27;19923;-70
2022/03/17 12:40:56;;;;;;;;;;;10.80;99.90;;;;;;5135447;27;19924;-70
2022/03/17 12:43:22;;;;;;;;;;;10.70;99.90;;;;;;5135451;27;20366;-72
2022/03/17 12:45:51;;;;;;;;;;;10.70;99.90;;;;;;5117089;27;19923;-69
2022/03/17 12:48:17;;;;;;;;;;;10.70;99.90;;;;;;5135426;27;19971;-73
2022/03/17 12:50:44;;;;;;;;;;;10.80;99.90;;;;;;5117052;27;19931;-71
2022/03/17 12:53:09;;;;;;;;;;;10.70;99.90;;;;;;5135067;27;19923;-71
2022/03/17 12:55:35;;;;;;;;;;;10.80;99.90;;;;;;5116710;27;20404;-70
2022/03/17 12:58:02;;;;;;;;;;;10.80;99.90;;;;;;5117155;27;19927;-70
2022/03/17 13:00:27;;;;;;;;;;;10.80;99.90;;;;;;5135161;27;20340;-70
2022/03/17 13:02:54;;;;;;;;;;;10.80;99.90;;;;;;5135043;27;19923;-70
2022/03/17 13:08:05;;;;;;;;;;;10.70;99.90;;;;;;5135100;27;19930;-70
2022/03/17 13:14:20;;;;;;;;;;;10.70;99.90;;;;;;5116575;27;19927;-71
2022/03/17 13:16:02;;;;;;;;;;;10.70;99.90;;;;;;5135080;27;19931;-70
2022/03/17 13:18:44;;;;;;;;;;;10.70;99.90;;;;;;5151123;27;20275;-70
2022/03/17 13:21:12;;;;;;;;;;;10.60;99.90;;;;;;5134849;27;19978;-69
2022/03/17 13:23:38;;;;;;;;;;;10.50;99.90;;;;;;5151241;27;19927;-70
2022/03/17 13:26:03;;;;;;;;;;;10.50;99.90;;;;;;5099139;27;20477;-72
2022/03/17 13:28:29;;;;;;;;;;;10.50;99.90;;;;;;5116253;27;20014;-73
2022/03/17 13:30:56;;;;;;;;;;;10.60;99.90;;;;;;5134825;27;19974;-70
2022/03/17 13:33:25;;;;;;;;;;;11.20;99.90;;;;;;5151158;27;19988;-70
2022/03/17 13:35:51;;;;;;;;;;;10.60;99.90;;;;;;5134721;27;19930;-70
2022/03/17 13:38:18;;;;;;;;;;;10.60;99.90;;;;;;5134631;28;19923;-71
2022/03/17 13:40:46;;;;;;;;;;;10.60;99.90;;;;;;5116415;28;19931;-70
2022/03/17 13:43:14;;;;;;;;;;;10.70;99.90;;;;;;5116416;28;20342;-70
2022/03/17 13:45:41;;;;;;;;;;;10.70;99.90;;;;;;5116754;28;20023;-70
2022/03/17 13:48:08;;;;;;;;;;;10.70;99.90;;;;;;5134631;28;20379;-72
2022/03/17 13:50:48;;;;;;;;;;;10.70;99.90;;;;;;5116271;28;20010;-73
2022/03/17 13:53:16;;;;;;;;;;;10.70;99.90;;;;;;5134411;28;19930;-71
2022/03/17 13:55:45;;;;;;;;;;;10.80;99.90;;;;;;5116316;28;19923;-72
2022/03/17 13:58:11;;;;;;;;;;;10.70;99.90;;;;;;5150632;27;19930;-70
2022/03/17 14:00:37;;;;;;;;;;;10.80;99.90;;;;;;5116382;28;19924;-70
2022/03/17 14:03:12;;;;;;;;;;;10.80;99.90;;;;;;5134414;28;20278;-69
2022/03/17 14:05:56;;;;;;;;;;;10.80;99.90;;;;;;5118724;27;20286;-70
2022/03/17 14:08:22;;;;;;;;;;;10.80;99.90;;;;;;5138473;27;20394;-70
2022/03/17 14:10:47;;;;;;;;;;;11.30;99.90;;;;;;5120038;27;19975;-71
2022/03/17 14:13:13;;;;;;;;;;;10.90;99.90;;;;;;5154947;27;19923;-71
2022/03/17 14:15:38;;;;;;;;;;;10.90;99.90;;;;;;5138514;27;19930;-70
2022/03/17 14:18:04;;;;;;;;;;;10.90;99.90;;;;;;5154380;27;20002;-70
2022/03/17 14:20:29;;;;;;;;;;;10.90;99.90;;;;;;5138447;27;19934;-70
2022/03/17 14:25:56;;;;;;;;;;;10.90;99.90;;;;;;5115324;28;19924;-73
2022/03/17 14:28:22;;;;;;;;;;;10.90;99.90;;;;;;5097021;28;20295;-70
2022/03/17 14:30:48;;;;;;;;;;;10.90;99.90;;;;;;5113978;28;19924;-69
2022/03/17 14:33:14;;;;;;;;;;;10.90;99.90;;;;;;5113899;28;19928;-70
2022/03/17 14:35:40;;;;;;;;;;;11.00;99.90;;;;;;5097207;28;19927;-70
2022/03/17 14:38:05;;;;;;;;;;;10.90;99.90;;;;;;5113999;28;19927;-70
2022/03/17 14:40:31;;;;;;;;;;;11.00;99.90;;;;;;5113835;28;19924;-70
2022/03/17 14:42:57;;;;;;;;;;;11.00;99.90;;;;;;5113816;28;19923;-74
2022/03/17 14:45:23;;;;;;;;;;;11.00;99.90;;;;;;5113917;28;19931;-71
2022/03/17 14:47:49;;;;;;;;;;;11.00;99.90;;;;;;5113802;28;20406;-70
2022/03/17 14:50:14;;;;;;;;;;;11.10;99.90;;;;;;5096635;28;19931;-70
2022/03/17 14:52:40;;;;;;;;;;;11.20;99.90;;;;;;5113706;28;19930;-72